sensor_id;sensor_type;location;lat;lon;timestamp;P1;durP1;ratioP1;P2;durP2;ratioP2
74660;SDS011;63191;39.566;2.654;2022-12-18T00:00:27;6.90;;;2.30;;
74660;SDS011;63191;39.566;2.654;2022-12-18T00:02:53;9.70;;;2.90;;
74660;SDS011;63191;39.566;2.654;2022-12-18T00:05:27;8.20;;;2.50;;
74660;SDS011;63191;39.566;2.654;2022-12-18T00:07:54;6.60;;;2.20;;
74660;SDS011;63191;39.566;2.654;2022-12-18T00:10:26;7.10;;;1.90;;
74660;SDS011;63191;39.566;2.654;2022-12-18T00:12:53;7.30;;;2.20;;
74660;SDS011;63191;39.566;2.654;2022-12-18T00:15:39;6.30;;;2.10;;
74660;SDS011;63191;39.566;2.654;2022-12-18T00:18:10;7.30;;;2.30;;
74660;SDS011;63191;39.566;2.654;2022-12-18T00:20:39;7.80;;;1.90;;
74660;SDS011;63191;39.566;2.654;2022-12-18T00:23:08;6.10;;;2.00;;
74660;SDS011;63191;39.566;2.654;2022-12-18T00:25:35;5.90;;;2.10;;
74660;SDS011;63191;39.566;2.654;2022-12-18T00:28:03;7.70;;;1.90;;
74660;SDS011;63191;39.566;2.654;2022-12-18T00:30:30;5.80;;;1.50;;
74660;SDS011;63191;39.566;2.654;2022-12-18T00:32:56;4.80;;;1.50;;
74660;SDS011;63191;39.566;2.654;2022-12-18T00:35:22;6.50;;;1.70;;
74660;SDS011;63191;39.566;2.654;2022-12-18T00:37:48;7.00;;;1.70;;
74660;SDS011;63191;39.566;2.654;2022-12-18T00:40:14;7.20;;;1.60;;
74660;SDS011;63191;39.566;2.654;2022-12-18T00:42:42;6.80;;;1.80;;
74660;SDS011;63191;39.566;2.654;2022-12-18T00:45:28;6.30;;;1.60;;
74660;SDS011;63191;39.566;2.654;2022-12-18T00:47:56;7.10;;;1.70;;
74660;SDS011;63191;39.566;2.654;2022-12-18T00:50:24;5.30;;;1.60;;
74660;SDS011;63191;39.566;2.654;2022-12-18T00:52:51;7.70;;;2.00;;
74660;SDS011;63191;39.566;2.654;2022-12-18T00:55:17;10.50;;;1.80;;
74660;SDS011;63191;39.566;2.654;2022-12-18T00:57:43;6.90;;;1.80;;
74660;SDS011;63191;39.566;2.654;2022-12-18T01:00:12;6.90;;;1.90;;
74660;SDS011;63191;39.566;2.654;2022-12-18T01:02:40;5.30;;;1.90;;
74660;SDS011;63191;39.566;2.654;2022-12-18T01:05:08;6.30;;;1.70;;
74660;SDS011;63191;39.566;2.654;2022-12-18T01:07:34;6.30;;;1.60;;
74660;SDS011;63191;39.566;2.654;2022-12-18T01:10:00;6.10;;;1.80;;
74660;SDS011;63191;39.566;2.654;2022-12-18T01:12:26;6.00;;;1.40;;
74660;SDS011;63191;39.566;2.654;2022-12-18T01:14:51;6.70;;;1.60;;
74660;SDS011;63191;39.566;2.654;2022-12-18T01:17:17;5.10;;;1.60;;
74660;SDS011;63191;39.566;2.654;2022-12-18T01:19:43;6.90;;;1.60;;
74660;SDS011;63191;39.566;2.654;2022-12-18T01:22:08;5.50;;;1.50;;
74660;SDS011;63191;39.566;2.654;2022-12-18T01:24:34;7.40;;;1.70;;
74660;SDS011;63191;39.566;2.654;2022-12-18T01:27:00;5.50;;;1.60;;
74660;SDS011;63191;39.566;2.654;2022-12-18T01:29:25;8.70;;;1.70;;
74660;SDS011;63191;39.566;2.654;2022-12-18T01:31:55;6.70;;;1.80;;
74660;SDS011;63191;39.566;2.654;2022-12-18T01:34:22;7.40;;;1.70;;
74660;SDS011;63191;39.566;2.654;2022-12-18T01:36:48;6.80;;;1.80;;
74660;SDS011;63191;39.566;2.654;2022-12-18T01:39:18;7.20;;;1.70;;
74660;SDS011;63191;39.566;2.654;2022-12-18T01:41:44;6.40;;;1.70;;
74660;SDS011;63191;39.566;2.654;2022-12-18T01:45:04;7.90;;;2.20;;
74660;SDS011;63191;39.566;2.654;2022-12-18T01:47:47;6.30;;;2.00;;
74660;SDS011;63191;39.566;2.654;2022-12-18T01:50:32;6.80;;;2.00;;
74660;SDS011;63191;39.566;2.654;2022-12-18T01:55:40;6.70;;;1.90;;
74660;SDS011;63191;39.566;2.654;2022-12-18T01:58:15;8.10;;;2.10;;
74660;SDS011;63191;39.566;2.654;2022-12-18T02:00:41;5.80;;;1.90;;
74660;SDS011;63191;39.566;2.654;2022-12-18T02:03:09;5.00;;;1.70;;
74660;SDS011;63191;39.566;2.654;2022-12-18T02:05:47;7.40;;;1.70;;
74660;SDS011;63191;39.566;2.654;2022-12-18T02:08:33;6.60;;;1.60;;
74660;SDS011;63191;39.566;2.654;2022-12-18T02:14:31;5.80;;;1.70;;
74660;SDS011;63191;39.566;2.654;2022-12-18T02:19:39;5.00;;;1.20;;
74660;SDS011;63191;39.566;2.654;2022-12-18T02:28:23;5.30;;;1.30;;
74660;SDS011;63191;39.566;2.654;2022-12-18T02:30:53;5.90;;;1.30;;
74660;SDS011;63191;39.566;2.654;2022-12-18T02:33:24;3.30;;;1.00;;
74660;SDS011;63191;39.566;2.654;2022-12-18T02:35:51;7.00;;;1.50;;
74660;SDS011;63191;39.566;2.654;2022-12-18T02:38:19;5.10;;;1.40;;
74660;SDS011;63191;39.566;2.654;2022-12-18T02:40:46;5.30;;;1.60;;
74660;SDS011;63191;39.566;2.654;2022-12-18T02:43:14;4.40;;;1.30;;
74660;SDS011;63191;39.566;2.654;2022-12-18T02:48:18;6.80;;;1.20;;
74660;SDS011;63191;39.566;2.654;2022-12-18T02:51:21;6.10;;;1.70;;
74660;SDS011;63191;39.566;2.654;2022-12-18T02:54:10;4.00;;;1.40;;
74660;SDS011;63191;39.566;2.654;2022-12-18T02:57:11;5.00;;;1.50;;
74660;SDS011;63191;39.566;2.654;2022-12-18T03:00:12;5.30;;;1.30;;
74660;SDS011;63191;39.566;2.654;2022-12-18T03:05:41;6.20;;;1.60;;
74660;SDS011;63191;39.566;2.654;2022-12-18T03:08:18;6.30;;;2.20;;
74660;SDS011;63191;39.566;2.654;2022-12-18T03:11:00;7.10;;;1.80;;
74660;SDS011;63191;39.566;2.654;2022-12-18T03:16:05;5.60;;;1.40;;
74660;SDS011;63191;39.566;2.654;2022-12-18T03:18:58;6.50;;;1.50;;
74660;SDS011;63191;39.566;2.654;2022-12-18T03:21:40;3.80;;;1.00;;
74660;SDS011;63191;39.566;2.654;2022-12-18T03:24:09;5.10;;;1.30;;
74660;SDS011;63191;39.566;2.654;2022-12-18T03:26:40;4.90;;;1.50;;
74660;SDS011;63191;39.566;2.654;2022-12-18T03:29:15;6.30;;;1.90;;
74660;SDS011;63191;39.566;2.654;2022-12-18T03:31:49;6.20;;;1.80;;
74660;SDS011;63191;39.566;2.654;2022-12-18T03:34:27;6.10;;;1.60;;
74660;SDS011;63191;39.566;2.654;2022-12-18T03:36:55;7.20;;;1.40;;
74660;SDS011;63191;39.566;2.654;2022-12-18T03:39:21;6.30;;;1.70;;
74660;SDS011;63191;39.566;2.654;2022-12-18T03:42:06;6.40;;;1.70;;
74660;SDS011;63191;39.566;2.654;2022-12-18T03:44:44;7.10;;;1.70;;
74660;SDS011;63191;39.566;2.654;2022-12-18T03:50:21;5.90;;;1.10;;
74660;SDS011;63191;39.566;2.654;2022-12-18T03:53:12;4.60;;;1.00;;
74660;SDS011;63191;39.566;2.654;2022-12-18T03:55:45;4.30;;;1.00;;
74660;SDS011;63191;39.566;2.654;2022-12-18T03:58:19;4.80;;;0.90;;
74660;SDS011;63191;39.566;2.654;2022-12-18T04:00:49;5.60;;;1.70;;
74660;SDS011;63191;39.566;2.654;2022-12-18T04:03:19;5.40;;;1.10;;
74660;SDS011;63191;39.566;2.654;2022-12-18T04:05:47;6.10;;;1.60;;
74660;SDS011;63191;39.566;2.654;2022-12-18T04:08:16;7.50;;;1.50;;
74660;SDS011;63191;39.566;2.654;2022-12-18T04:10:44;7.80;;;1.70;;
74660;SDS011;63191;39.566;2.654;2022-12-18T04:13:10;6.20;;;1.10;;
74660;SDS011;63191;39.566;2.654;2022-12-18T04:15:37;4.20;;;1.10;;
74660;SDS011;63191;39.566;2.654;2022-12-18T04:18:03;7.20;;;3.00;;
74660;SDS011;63191;39.566;2.654;2022-12-18T04:20:30;9.20;;;3.00;;
74660;SDS011;63191;39.566;2.654;2022-12-18T04:22:58;7.10;;;3.20;;
74660;SDS011;63191;39.566;2.654;2022-12-18T04:25:25;6.70;;;2.10;;
74660;SDS011;63191;39.566;2.654;2022-12-18T04:27:51;6.20;;;1.80;;
74660;SDS011;63191;39.566;2.654;2022-12-18T04:30:18;4.70;;;1.60;;
74660;SDS011;63191;39.566;2.654;2022-12-18T04:32:44;7.60;;;1.70;;
74660;SDS011;63191;39.566;2.654;2022-12-18T04:35:10;5.00;;;1.10;;
74660;SDS011;63191;39.566;2.654;2022-12-18T04:37:37;4.30;;;0.90;;
74660;SDS011;63191;39.566;2.654;2022-12-18T04:40:03;5.00;;;1.10;;
74660;SDS011;63191;39.566;2.654;2022-12-18T04:42:38;4.50;;;0.90;;
74660;SDS011;63191;39.566;2.654;2022-12-18T04:45:06;3.80;;;0.90;;
74660;SDS011;63191;39.566;2.654;2022-12-18T04:47:35;4.60;;;1.10;;
74660;SDS011;63191;39.566;2.654;2022-12-18T04:50:10;4.20;;;0.90;;
74660;SDS011;63191;39.566;2.654;2022-12-18T04:53:05;3.40;;;0.70;;
74660;SDS011;63191;39.566;2.654;2022-12-18T04:56:04;3.00;;;0.70;;
74660;SDS011;63191;39.566;2.654;2022-12-18T04:58:36;3.40;;;0.70;;
74660;SDS011;63191;39.566;2.654;2022-12-18T05:01:10;2.90;;;0.60;;
74660;SDS011;63191;39.566;2.654;2022-12-18T05:04:26;4.10;;;0.70;;
74660;SDS011;63191;39.566;2.654;2022-12-18T05:07:07;3.00;;;0.60;;
74660;SDS011;63191;39.566;2.654;2022-12-18T05:09:45;7.60;;;0.80;;
74660;SDS011;63191;39.566;2.654;2022-12-18T05:12:12;6.20;;;1.10;;
74660;SDS011;63191;39.566;2.654;2022-12-18T05:14:38;4.70;;;0.90;;
74660;SDS011;63191;39.566;2.654;2022-12-18T05:17:04;5.80;;;1.10;;
74660;SDS011;63191;39.566;2.654;2022-12-18T05:19:31;4.20;;;0.90;;
74660;SDS011;63191;39.566;2.654;2022-12-18T05:21:57;3.30;;;0.60;;
74660;SDS011;63191;39.566;2.654;2022-12-18T05:24:23;5.10;;;0.70;;
74660;SDS011;63191;39.566;2.654;2022-12-18T05:26:49;4.50;;;0.60;;
74660;SDS011;63191;39.566;2.654;2022-12-18T05:29:15;4.90;;;0.90;;
74660;SDS011;63191;39.566;2.654;2022-12-18T05:31:41;4.80;;;0.80;;
74660;SDS011;63191;39.566;2.654;2022-12-18T05:34:07;4.00;;;0.80;;
74660;SDS011;63191;39.566;2.654;2022-12-18T05:36:32;2.90;;;0.70;;
74660;SDS011;63191;39.566;2.654;2022-12-18T05:38:58;5.60;;;0.80;;
74660;SDS011;63191;39.566;2.654;2022-12-18T05:41:25;3.60;;;0.90;;
74660;SDS011;63191;39.566;2.654;2022-12-18T05:43:52;4.00;;;0.90;;
74660;SDS011;63191;39.566;2.654;2022-12-18T05:46:18;3.50;;;0.70;;
74660;SDS011;63191;39.566;2.654;2022-12-18T05:48:44;3.80;;;0.70;;
74660;SDS011;63191;39.566;2.654;2022-12-18T05:51:13;3.00;;;0.60;;
74660;SDS011;63191;39.566;2.654;2022-12-18T05:53:41;3.40;;;0.70;;
74660;SDS011;63191;39.566;2.654;2022-12-18T05:56:11;3.40;;;0.70;;
74660;SDS011;63191;39.566;2.654;2022-12-18T05:58:39;4.30;;;0.70;;
74660;SDS011;63191;39.566;2.654;2022-12-18T06:01:17;4.30;;;0.70;;
74660;SDS011;63191;39.566;2.654;2022-12-18T06:03:44;4.50;;;0.90;;
74660;SDS011;63191;39.566;2.654;2022-12-18T06:06:22;4.90;;;0.60;;
74660;SDS011;63191;39.566;2.654;2022-12-18T06:08:50;3.30;;;0.50;;
74660;SDS011;63191;39.566;2.654;2022-12-18T06:11:19;5.30;;;0.60;;
74660;SDS011;63191;39.566;2.654;2022-12-18T06:13:49;4.80;;;0.70;;
74660;SDS011;63191;39.566;2.654;2022-12-18T06:16:16;3.00;;;0.60;;
74660;SDS011;63191;39.566;2.654;2022-12-18T06:18:42;4.10;;;0.60;;
74660;SDS011;63191;39.566;2.654;2022-12-18T06:21:08;2.70;;;0.70;;
74660;SDS011;63191;39.566;2.654;2022-12-18T06:23:34;3.40;;;0.70;;
74660;SDS011;63191;39.566;2.654;2022-12-18T06:26:18;3.00;;;0.60;;
74660;SDS011;63191;39.566;2.654;2022-12-18T06:28:45;4.00;;;0.70;;
74660;SDS011;63191;39.566;2.654;2022-12-18T06:31:11;3.60;;;0.80;;
74660;SDS011;63191;39.566;2.654;2022-12-18T06:33:37;5.00;;;0.80;;
74660;SDS011;63191;39.566;2.654;2022-12-18T06:36:06;4.00;;;0.80;;
74660;SDS011;63191;39.566;2.654;2022-12-18T06:38:40;3.90;;;0.70;;
74660;SDS011;63191;39.566;2.654;2022-12-18T06:41:22;3.50;;;0.70;;
74660;SDS011;63191;39.566;2.654;2022-12-18T06:43:47;5.70;;;1.00;;
74660;SDS011;63191;39.566;2.654;2022-12-18T06:46:17;4.00;;;0.90;;
74660;SDS011;63191;39.566;2.654;2022-12-18T06:48:50;3.80;;;0.80;;
74660;SDS011;63191;39.566;2.654;2022-12-18T06:51:20;2.70;;;0.70;;
74660;SDS011;63191;39.566;2.654;2022-12-18T06:53:46;3.10;;;0.80;;
74660;SDS011;63191;39.566;2.654;2022-12-18T06:56:12;3.90;;;0.80;;
74660;SDS011;63191;39.566;2.654;2022-12-18T06:58:40;4.00;;;0.80;;
74660;SDS011;63191;39.566;2.654;2022-12-18T07:01:12;2.70;;;0.70;;
74660;SDS011;63191;39.566;2.654;2022-12-18T07:03:40;4.00;;;0.70;;
74660;SDS011;63191;39.566;2.654;2022-12-18T07:06:15;4.10;;;0.80;;
74660;SDS011;63191;39.566;2.654;2022-12-18T07:08:53;5.40;;;0.70;;
74660;SDS011;63191;39.566;2.654;2022-12-18T07:11:20;4.10;;;0.70;;
74660;SDS011;63191;39.566;2.654;2022-12-18T07:13:46;2.80;;;0.60;;
74660;SDS011;63191;39.566;2.654;2022-12-18T07:16:17;3.70;;;0.70;;
74660;SDS011;63191;39.566;2.654;2022-12-18T07:18:45;3.20;;;0.80;;
74660;SDS011;63191;39.566;2.654;2022-12-18T07:21:15;3.10;;;0.50;;
74660;SDS011;63191;39.566;2.654;2022-12-18T07:23:42;3.20;;;0.60;;
74660;SDS011;63191;39.566;2.654;2022-12-18T07:26:12;5.00;;;1.20;;
74660;SDS011;63191;39.566;2.654;2022-12-18T07:28:40;4.60;;;1.00;;
74660;SDS011;63191;39.566;2.654;2022-12-18T07:31:10;5.50;;;0.80;;
74660;SDS011;63191;39.566;2.654;2022-12-18T07:33:37;5.40;;;0.90;;
74660;SDS011;63191;39.566;2.654;2022-12-18T07:36:05;5.80;;;0.90;;
74660;SDS011;63191;39.566;2.654;2022-12-18T07:38:33;2.80;;;0.50;;
74660;SDS011;63191;39.566;2.654;2022-12-18T07:41:04;5.00;;;0.90;;
74660;SDS011;63191;39.566;2.654;2022-12-18T07:43:32;5.20;;;0.80;;
74660;SDS011;63191;39.566;2.654;2022-12-18T07:45:59;4.00;;;0.80;;
74660;SDS011;63191;39.566;2.654;2022-12-18T07:48:24;4.70;;;1.00;;
74660;SDS011;63191;39.566;2.654;2022-12-18T07:50:50;4.40;;;0.70;;
74660;SDS011;63191;39.566;2.654;2022-12-18T07:53:16;5.20;;;0.80;;
74660;SDS011;63191;39.566;2.654;2022-12-18T07:55:42;4.70;;;0.90;;
74660;SDS011;63191;39.566;2.654;2022-12-18T07:58:08;4.20;;;0.90;;
74660;SDS011;63191;39.566;2.654;2022-12-18T08:00:35;3.40;;;0.90;;
74660;SDS011;63191;39.566;2.654;2022-12-18T08:03:01;4.90;;;1.10;;
74660;SDS011;63191;39.566;2.654;2022-12-18T08:05:27;4.20;;;1.00;;
74660;SDS011;63191;39.566;2.654;2022-12-18T08:07:53;4.00;;;1.10;;
74660;SDS011;63191;39.566;2.654;2022-12-18T08:10:20;4.60;;;1.10;;
74660;SDS011;63191;39.566;2.654;2022-12-18T08:12:49;3.20;;;1.00;;
74660;SDS011;63191;39.566;2.654;2022-12-18T08:15:16;7.20;;;1.40;;
74660;SDS011;63191;39.566;2.654;2022-12-18T08:17:42;5.40;;;1.20;;
74660;SDS011;63191;39.566;2.654;2022-12-18T08:20:09;4.40;;;1.30;;
74660;SDS011;63191;39.566;2.654;2022-12-18T08:22:36;5.20;;;1.40;;
74660;SDS011;63191;39.566;2.654;2022-12-18T08:25:04;5.50;;;1.30;;
74660;SDS011;63191;39.566;2.654;2022-12-18T08:27:32;4.80;;;1.60;;
74660;SDS011;63191;39.566;2.654;2022-12-18T08:29:59;7.20;;;1.80;;
74660;SDS011;63191;39.566;2.654;2022-12-18T08:32:27;5.80;;;1.30;;
74660;SDS011;63191;39.566;2.654;2022-12-18T08:34:53;4.30;;;1.20;;
74660;SDS011;63191;39.566;2.654;2022-12-18T08:37:19;4.80;;;1.90;;
74660;SDS011;63191;39.566;2.654;2022-12-18T08:39:46;4.80;;;1.60;;
74660;SDS011;63191;39.566;2.654;2022-12-18T08:42:12;4.80;;;1.80;;
74660;SDS011;63191;39.566;2.654;2022-12-18T08:44:56;6.40;;;1.70;;
74660;SDS011;63191;39.566;2.654;2022-12-18T08:47:22;5.40;;;1.90;;
74660;SDS011;63191;39.566;2.654;2022-12-18T08:49:48;4.90;;;2.00;;
74660;SDS011;63191;39.566;2.654;2022-12-18T08:52:14;6.00;;;2.30;;
74660;SDS011;63191;39.566;2.654;2022-12-18T08:54:55;5.40;;;2.20;;
74660;SDS011;63191;39.566;2.654;2022-12-18T08:57:24;6.10;;;2.60;;
74660;SDS011;63191;39.566;2.654;2022-12-18T08:59:50;6.00;;;2.60;;
74660;SDS011;63191;39.566;2.654;2022-12-18T09:02:15;5.50;;;2.70;;
74660;SDS011;63191;39.566;2.654;2022-12-18T09:04:51;5.30;;;2.60;;
74660;SDS011;63191;39.566;2.654;2022-12-18T09:07:17;6.70;;;3.20;;
74660;SDS011;63191;39.566;2.654;2022-12-18T09:09:43;6.80;;;3.50;;
74660;SDS011;63191;39.566;2.654;2022-12-18T09:12:09;5.80;;;3.70;;
74660;SDS011;63191;39.566;2.654;2022-12-18T09:14:35;6.70;;;3.70;;
74660;SDS011;63191;39.566;2.654;2022-12-18T09:17:01;6.90;;;4.30;;
74660;SDS011;63191;39.566;2.654;2022-12-18T09:19:27;6.60;;;4.00;;
74660;SDS011;63191;39.566;2.654;2022-12-18T09:21:53;7.50;;;4.20;;
74660;SDS011;63191;39.566;2.654;2022-12-18T09:24:19;7.50;;;4.40;;
74660;SDS011;63191;39.566;2.654;2022-12-18T09:26:45;7.40;;;4.70;;
74660;SDS011;63191;39.566;2.654;2022-12-18T09:29:11;8.20;;;5.30;;
74660;SDS011;63191;39.566;2.654;2022-12-18T09:31:38;8.80;;;5.40;;
74660;SDS011;63191;39.566;2.654;2022-12-18T09:34:06;7.60;;;5.40;;
74660;SDS011;63191;39.566;2.654;2022-12-18T09:36:33;7.50;;;6.50;;
74660;SDS011;63191;39.566;2.654;2022-12-18T09:38:59;8.20;;;6.40;;
74660;SDS011;63191;39.566;2.654;2022-12-18T09:44:36;10.90;;;8.60;;
74660;SDS011;63191;39.566;2.654;2022-12-18T09:47:28;11.40;;;8.50;;
74660;SDS011;63191;39.566;2.654;2022-12-18T09:49:59;9.00;;;8.10;;
74660;SDS011;63191;39.566;2.654;2022-12-18T09:52:34;10.90;;;8.40;;
74660;SDS011;63191;39.566;2.654;2022-12-18T09:55:14;9.60;;;7.90;;
74660;SDS011;63191;39.566;2.654;2022-12-18T09:57:51;8.60;;;7.30;;
74660;SDS011;63191;39.566;2.654;2022-12-18T10:00:21;9.50;;;8.40;;
74660;SDS011;63191;39.566;2.654;2022-12-18T10:02:50;8.50;;;7.70;;
74660;SDS011;63191;39.566;2.654;2022-12-18T10:05:33;9.20;;;8.00;;
74660;SDS011;63191;39.566;2.654;2022-12-18T10:08:09;10.10;;;8.00;;
74660;SDS011;63191;39.566;2.654;2022-12-18T10:10:53;9.40;;;8.50;;
74660;SDS011;63191;39.566;2.654;2022-12-18T10:13:32;8.70;;;7.90;;
74660;SDS011;63191;39.566;2.654;2022-12-18T10:19:06;9.30;;;8.40;;
74660;SDS011;63191;39.566;2.654;2022-12-18T10:21:55;12.60;;;11.20;;
74660;SDS011;63191;39.566;2.654;2022-12-18T10:25:35;14.10;;;12.60;;
74660;SDS011;63191;39.566;2.654;2022-12-18T10:27:44;10.70;;;9.80;;
74660;SDS011;63191;39.566;2.654;2022-12-18T10:30:20;11.00;;;9.70;;
74660;SDS011;63191;39.566;2.654;2022-12-18T10:32:47;12.30;;;11.00;;
74660;SDS011;63191;39.566;2.654;2022-12-18T10:35:24;10.50;;;9.50;;
74660;SDS011;63191;39.566;2.654;2022-12-18T10:38:30;10.20;;;9.20;;
74660;SDS011;63191;39.566;2.654;2022-12-18T10:41:08;10.10;;;9.00;;
74660;SDS011;63191;39.566;2.654;2022-12-18T10:44:18;9.80;;;9.00;;
74660;SDS011;63191;39.566;2.654;2022-12-18T10:46:47;12.10;;;11.00;;
74660;SDS011;63191;39.566;2.654;2022-12-18T10:49:23;10.00;;;9.00;;
74660;SDS011;63191;39.566;2.654;2022-12-18T10:52:07;9.70;;;8.90;;
74660;SDS011;63191;39.566;2.654;2022-12-18T10:54:58;11.30;;;10.20;;
74660;SDS011;63191;39.566;2.654;2022-12-18T10:57:36;10.90;;;9.80;;
74660;SDS011;63191;39.566;2.654;2022-12-18T11:00:30;9.30;;;8.40;;
74660;SDS011;63191;39.566;2.654;2022-12-18T11:02:56;10.90;;;9.90;;
74660;SDS011;63191;39.566;2.654;2022-12-18T11:05:31;8.60;;;7.80;;
74660;SDS011;63191;39.566;2.654;2022-12-18T11:08:00;9.60;;;8.20;;
74660;SDS011;63191;39.566;2.654;2022-12-18T11:10:35;10.00;;;9.10;;
74660;SDS011;63191;39.566;2.654;2022-12-18T11:13:29;18.90;;;17.20;;
74660;SDS011;63191;39.566;2.654;2022-12-18T11:15:57;8.20;;;7.50;;
74660;SDS011;63191;39.566;2.654;2022-12-18T11:18:33;9.50;;;8.60;;
74660;SDS011;63191;39.566;2.654;2022-12-18T11:21:09;8.50;;;7.70;;
74660;SDS011;63191;39.566;2.654;2022-12-18T11:23:37;8.00;;;7.20;;
74660;SDS011;63191;39.566;2.654;2022-12-18T11:26:16;7.70;;;6.90;;
74660;SDS011;63191;39.566;2.654;2022-12-18T11:29:09;8.50;;;7.70;;
74660;SDS011;63191;39.566;2.654;2022-12-18T11:31:40;8.60;;;7.80;;
74660;SDS011;63191;39.566;2.654;2022-12-18T11:34:28;7.90;;;7.10;;
74660;SDS011;63191;39.566;2.654;2022-12-18T11:36:58;7.70;;;6.50;;
74660;SDS011;63191;39.566;2.654;2022-12-18T11:39:36;8.10;;;7.30;;
74660;SDS011;63191;39.566;2.654;2022-12-18T11:42:24;7.20;;;6.50;;
74660;SDS011;63191;39.566;2.654;2022-12-18T11:53:24;8.40;;;7.60;;
74660;SDS011;63191;39.566;2.654;2022-12-18T12:05:40;7.40;;;5.70;;
74660;SDS011;63191;39.566;2.654;2022-12-18T12:19:45;6.80;;;5.30;;
74660;SDS011;63191;39.566;2.654;2022-12-18T12:22:50;5.60;;;4.60;;
74660;SDS011;63191;39.566;2.654;2022-12-18T12:25:39;5.80;;;4.50;;
74660;SDS011;63191;39.566;2.654;2022-12-18T12:28:28;9.60;;;8.40;;
74660;SDS011;63191;39.566;2.654;2022-12-18T12:31:25;7.30;;;4.60;;
74660;SDS011;63191;39.566;2.654;2022-12-18T13:47:24;5.80;;;1.90;;
74660;SDS011;63191;39.566;2.654;2022-12-18T13:52:51;5.00;;;1.50;;
74660;SDS011;63191;39.566;2.654;2022-12-18T13:55:23;7.10;;;2.00;;
74660;SDS011;63191;39.566;2.654;2022-12-18T13:58:03;4.10;;;1.00;;
74660;SDS011;63191;39.566;2.654;2022-12-18T14:00:33;6.50;;;1.30;;
74660;SDS011;63191;39.566;2.654;2022-12-18T14:02:59;4.60;;;1.10;;
74660;SDS011;63191;39.566;2.654;2022-12-18T14:05:28;4.00;;;1.30;;
74660;SDS011;63191;39.566;2.654;2022-12-18T14:08:04;6.00;;;2.10;;
74660;SDS011;63191;39.566;2.654;2022-12-18T14:17:00;5.40;;;1.80;;
74660;SDS011;63191;39.566;2.654;2022-12-18T14:19:27;4.60;;;1.10;;
74660;SDS011;63191;39.566;2.654;2022-12-18T14:21:53;4.40;;;1.10;;
74660;SDS011;63191;39.566;2.654;2022-12-18T14:38:39;4.50;;;0.80;;
74660;SDS011;63191;39.566;2.654;2022-12-18T14:41:10;5.20;;;1.00;;
74660;SDS011;63191;39.566;2.654;2022-12-18T14:43:43;7.00;;;2.30;;
74660;SDS011;63191;39.566;2.654;2022-12-18T15:17:06;4.80;;;1.00;;
74660;SDS011;63191;39.566;2.654;2022-12-18T15:19:44;3.80;;;0.80;;
74660;SDS011;63191;39.566;2.654;2022-12-18T15:22:36;3.70;;;1.10;;
74660;SDS011;63191;39.566;2.654;2022-12-18T15:25:20;2.90;;;0.70;;
74660;SDS011;63191;39.566;2.654;2022-12-18T15:27:49;4.90;;;1.20;;
74660;SDS011;63191;39.566;2.654;2022-12-18T15:30:18;2.90;;;0.70;;
74660;SDS011;63191;39.566;2.654;2022-12-18T15:32:47;4.40;;;0.70;;
74660;SDS011;63191;39.566;2.654;2022-12-18T15:35:20;4.40;;;0.80;;
74660;SDS011;63191;39.566;2.654;2022-12-18T15:37:49;2.40;;;0.80;;
74660;SDS011;63191;39.566;2.654;2022-12-18T15:40:20;3.50;;;0.60;;
74660;SDS011;63191;39.566;2.654;2022-12-18T15:42:47;2.30;;;0.50;;
74660;SDS011;63191;39.566;2.654;2022-12-18T15:45:46;3.60;;;0.60;;
74660;SDS011;63191;39.566;2.654;2022-12-18T15:48:21;3.60;;;0.50;;
74660;SDS011;63191;39.566;2.654;2022-12-18T15:50:51;5.20;;;0.80;;
74660;SDS011;63191;39.566;2.654;2022-12-18T15:53:39;4.40;;;0.70;;
74660;SDS011;63191;39.566;2.654;2022-12-18T15:56:10;2.90;;;0.60;;
74660;SDS011;63191;39.566;2.654;2022-12-18T15:58:55;3.00;;;0.60;;
74660;SDS011;63191;39.566;2.654;2022-12-18T16:01:25;3.80;;;0.90;;
74660;SDS011;63191;39.566;2.654;2022-12-18T16:03:56;2.60;;;0.60;;
74660;SDS011;63191;39.566;2.654;2022-12-18T16:06:23;3.60;;;0.90;;
74660;SDS011;63191;39.566;2.654;2022-12-18T16:08:49;5.60;;;1.20;;
74660;SDS011;63191;39.566;2.654;2022-12-18T16:11:35;2.40;;;0.60;;
74660;SDS011;63191;39.566;2.654;2022-12-18T16:16:49;2.60;;;0.60;;
74660;SDS011;63191;39.566;2.654;2022-12-18T16:19:27;3.70;;;0.60;;
74660;SDS011;63191;39.566;2.654;2022-12-18T16:21:59;4.30;;;0.90;;
74660;SDS011;63191;39.566;2.654;2022-12-18T16:24:28;2.00;;;0.60;;
74660;SDS011;63191;39.566;2.654;2022-12-18T16:27:04;5.40;;;0.90;;
74660;SDS011;63191;39.566;2.654;2022-12-18T16:29:30;3.30;;;0.70;;
74660;SDS011;63191;39.566;2.654;2022-12-18T16:31:58;6.60;;;1.40;;
74660;SDS011;63191;39.566;2.654;2022-12-18T16:34:29;3.70;;;0.60;;
74660;SDS011;63191;39.566;2.654;2022-12-18T16:37:04;2.80;;;0.70;;
74660;SDS011;63191;39.566;2.654;2022-12-18T16:39:32;4.40;;;0.70;;
74660;SDS011;63191;39.566;2.654;2022-12-18T16:42:00;4.80;;;1.20;;
74660;SDS011;63191;39.566;2.654;2022-12-18T16:44:28;3.90;;;0.80;;
74660;SDS011;63191;39.566;2.654;2022-12-18T16:46:54;2.30;;;0.50;;
74660;SDS011;63191;39.566;2.654;2022-12-18T16:49:21;3.60;;;0.70;;
74660;SDS011;63191;39.566;2.654;2022-12-18T16:51:46;3.50;;;0.60;;
74660;SDS011;63191;39.566;2.654;2022-12-18T16:54:12;2.40;;;0.70;;
74660;SDS011;63191;39.566;2.654;2022-12-18T16:56:38;4.90;;;0.90;;
74660;SDS011;63191;39.566;2.654;2022-12-18T16:59:04;4.50;;;0.70;;
74660;SDS011;63191;39.566;2.654;2022-12-18T17:01:31;3.50;;;0.80;;
74660;SDS011;63191;39.566;2.654;2022-12-18T17:04:07;3.60;;;0.70;;
74660;SDS011;63191;39.566;2.654;2022-12-18T17:06:38;4.30;;;0.70;;
74660;SDS011;63191;39.566;2.654;2022-12-18T17:09:07;3.30;;;0.60;;
74660;SDS011;63191;39.566;2.654;2022-12-18T17:11:35;3.40;;;0.50;;
74660;SDS011;63191;39.566;2.654;2022-12-18T17:14:06;3.60;;;0.80;;
74660;SDS011;63191;39.566;2.654;2022-12-18T17:16:38;3.20;;;0.60;;
74660;SDS011;63191;39.566;2.654;2022-12-18T17:19:04;3.80;;;0.70;;
74660;SDS011;63191;39.566;2.654;2022-12-18T17:21:30;3.80;;;0.80;;
74660;SDS011;63191;39.566;2.654;2022-12-18T17:23:59;4.20;;;0.80;;
74660;SDS011;63191;39.566;2.654;2022-12-18T17:26:27;5.20;;;0.80;;
74660;SDS011;63191;39.566;2.654;2022-12-18T17:28:55;4.90;;;0.90;;
74660;SDS011;63191;39.566;2.654;2022-12-18T17:31:24;6.90;;;1.60;;
74660;SDS011;63191;39.566;2.654;2022-12-18T17:33:52;7.50;;;2.60;;
74660;SDS011;63191;39.566;2.654;2022-12-18T17:36:18;7.80;;;2.60;;
74660;SDS011;63191;39.566;2.654;2022-12-18T17:38:55;6.30;;;1.40;;
74660;SDS011;63191;39.566;2.654;2022-12-18T17:41:23;8.90;;;1.60;;
74660;SDS011;63191;39.566;2.654;2022-12-18T17:43:54;5.70;;;1.40;;
74660;SDS011;63191;39.566;2.654;2022-12-18T17:46:25;9.10;;;1.30;;
74660;SDS011;63191;39.566;2.654;2022-12-18T17:48:56;6.30;;;1.50;;
74660;SDS011;63191;39.566;2.654;2022-12-18T17:51:23;18.00;;;6.20;;
74660;SDS011;63191;39.566;2.654;2022-12-18T17:53:50;10.20;;;2.80;;
74660;SDS011;63191;39.566;2.654;2022-12-18T17:56:17;11.70;;;6.50;;
74660;SDS011;63191;39.566;2.654;2022-12-18T17:58:46;14.60;;;7.10;;
74660;SDS011;63191;39.566;2.654;2022-12-18T18:01:14;9.00;;;4.80;;
74660;SDS011;63191;39.566;2.654;2022-12-18T18:03:41;14.00;;;6.10;;
74660;SDS011;63191;39.566;2.654;2022-12-18T18:06:08;13.60;;;6.20;;
74660;SDS011;63191;39.566;2.654;2022-12-18T18:08:34;15.10;;;7.40;;
74660;SDS011;63191;39.566;2.654;2022-12-18T18:11:12;18.80;;;8.90;;
74660;SDS011;63191;39.566;2.654;2022-12-18T18:13:58;21.50;;;10.40;;
74660;SDS011;63191;39.566;2.654;2022-12-18T18:16:33;40.20;;;21.00;;
74660;SDS011;63191;39.566;2.654;2022-12-18T18:19:06;21.10;;;11.20;;
74660;SDS011;63191;39.566;2.654;2022-12-18T18:21:34;15.10;;;8.20;;
74660;SDS011;63191;39.566;2.654;2022-12-18T18:24:04;16.40;;;8.00;;
74660;SDS011;63191;39.566;2.654;2022-12-18T18:26:47;18.40;;;9.00;;